Time;durP1;ratioP1;P1;durP2;ratioP2;P2;SDS_P1;SDS_P2;PMS_P1;PMS_P2;Temp;Humidity;BMP_temperature;BMP_pressure;BME280_temperature;BME280_humidity;BME280_pressure;Samples;Min_cycle;Max_cycle;Signal;HPM_P1;HPM_P2
2023/06/25 00:00:35;;;;;;;9.10;8.50;;;22.90;59.30;;;;;;5045778;28;20207;-88
2023/06/25 00:03:01;;;;;;;9.88;9.18;;;23.00;58.80;;;;;;5042746;28;20184;-89
2023/06/25 00:05:26;;;;;;;9.57;8.98;;;23.00;59.10;;;;;;5035875;28;20225;-88
2023/06/25 00:07:52;;;;;;;9.27;8.48;;;23.00;59.00;;;;;;5034891;28;20191;-89
2023/06/25 00:10:18;;;;;;;9.48;8.88;;;22.90;59.60;;;;;;5033885;28;20224;-87
2023/06/25 00:12:44;;;;;;;9.02;8.25;;;23.00;59.10;;;;;;5031575;28;20177;-88
2023/06/25 00:15:11;;;;;;;9.25;8.63;;;23.00;57.80;;;;;;5031663;28;20546;-88
2023/06/25 00:17:36;;;;;;;9.35;8.65;;;22.90;59.00;;;;;;5012873;28;20182;-88
2023/06/25 00:20:02;;;;;;;9.75;8.88;;;23.00;58.80;;;;;;5013819;28;20185;-87
2023/06/25 00:22:28;;;;;;;9.93;9.13;;;23.00;58.50;;;;;;5012656;28;20194;-88
2023/06/25 00:24:54;;;;;;;9.30;8.43;;;22.90;58.70;;;;;;5014493;28;20604;-87
2023/06/25 00:27:19;;;;;;;9.60;8.77;;;22.70;59.70;;;;;;5014349;28;20197;-89
2023/06/25 00:29:45;;;;;;;9.55;8.80;;;22.80;59.20;;;;;;5014475;28;20201;-89
2023/06/25 00:32:15;;;;;;;9.90;9.20;;;22.80;59.00;;;;;;5015311;28;20209;-89
2023/06/25 00:34:41;;;;;;;9.50;8.80;;;22.80;58.80;;;;;;5014356;28;20244;-88
2023/06/25 00:37:16;;;;;;;13.10;9.73;;;22.80;58.60;;;;;;5014484;28;20226;-88
2023/06/25 00:39:45;;;;;;;9.30;8.60;;;22.50;59.30;;;;;;5014788;28;20164;-88
2023/06/25 00:42:11;;;;;;;9.95;9.27;;;22.10;60.70;;;;;;5023366;28;20347;-88
2023/06/25 00:44:40;;;;;;;9.48;8.88;;;21.80;61.40;;;;;;5034918;28;20200;-89
2023/06/25 00:47:14;;;;;;;9.57;8.88;;;21.70;62.10;;;;;;5033594;28;20205;-88
2023/06/25 00:49:41;;;;;;;9.68;8.82;;;21.80;61.90;;;;;;5031408;28;20568;-90
2023/06/25 00:52:08;;;;;;;10.13;9.32;;;21.80;62.00;;;;;;5034404;28;20212;-89
2023/06/25 00:54:44;;;;;;;9.55;8.88;;;21.90;61.90;;;;;;5038387;28;20256;-89
2023/06/25 00:57:10;;;;;;;10.02;9.13;;;21.90;61.60;;;;;;5059912;28;20188;-89
2023/06/25 00:59:40;;;;;;;9.52;8.82;;;21.90;62.10;;;;;;5074634;28;20200;-90
2023/06/25 01:02:26;;;;;;;9.35;8.65;;;21.90;62.30;;;;;;5072961;28;20153;-89
2023/06/25 01:05:11;;;;;;;10.05;9.13;;;22.00;61.30;;;;;;5072439;28;20180;-90
2023/06/25 01:07:43;;;;;;;9.63;8.93;;;21.90;61.90;;;;;;5031947;28;20262;-90
2023/06/25 01:10:10;;;;;;;9.70;9.00;;;21.80;62.30;;;;;;5016720;28;20189;-89
2023/06/25 01:12:36;;;;;;;9.27;8.68;;;21.80;62.60;;;;;;5012209;28;20576;-89
2023/06/25 01:15:02;;;;;;;10.10;9.32;;;21.80;62.40;;;;;;5012970;28;20201;-88
2023/06/25 01:17:29;;;;;;;10.25;9.45;;;21.80;62.40;;;;;;5011735;28;20173;-88
2023/06/25 01:19:54;;;;;;;10.35;9.65;;;21.80;62.50;;;;;;5011377;28;20587;-89
2023/06/25 01:22:42;;;;;;;10.02;9.38;;;21.70;62.80;;;;;;5015302;28;20181;-89
2023/06/25 01:25:09;;;;;;;10.02;9.23;;;21.70;63.60;;;;;;5031381;28;20197;-89
2023/06/25 01:27:35;;;;;;;10.57;9.82;;;21.70;63.00;;;;;;5033425;28;20268;-88
2023/06/25 01:30:03;;;;;;;10.82;10.00;;;21.60;63.30;;;;;;5033553;28;20233;-88
2023/06/25 01:32:29;;;;;;;10.40;9.70;;;21.50;63.80;;;;;;5035171;28;20177;-90
2023/06/25 01:34:55;;;;;;;9.85;9.13;;;21.50;64.10;;;;;;5035195;28;20252;-87
2023/06/25 01:37:20;;;;;;;9.82;9.13;;;21.50;64.40;;;;;;5033120;28;20217;-87
2023/06/25 01:39:52;;;;;;;10.93;9.82;;;21.60;63.80;;;;;;5017136;28;20189;-89
2023/06/25 01:42:18;;;;;;;10.73;9.77;;;21.50;63.70;;;;;;5026921;28;20184;-89
2023/06/25 01:44:43;;;;;;;9.90;9.30;;;21.50;63.90;;;;;;5034767;28;20181;-89
2023/06/25 01:47:09;;;;;;;10.18;9.43;;;21.40;64.20;;;;;;5036997;28;20205;-89
2023/06/25 01:49:35;;;;;;;10.60;9.75;;;21.20;65.20;;;;;;5036786;28;20200;-89
2023/06/25 01:52:02;;;;;;;10.68;9.70;;;21.20;65.40;;;;;;5039456;28;20293;-87
2023/06/25 01:54:28;;;;;;;9.32;8.68;;;21.20;65.00;;;;;;5056518;28;20169;-89
2023/06/25 01:56:54;;;;;;;9.77;9.18;;;21.20;65.10;;;;;;5056271;28;20210;-88
2023/06/25 01:59:20;;;;;;;9.95;9.15;;;21.20;65.30;;;;;;5056010;28;20184;-89
2023/06/25 02:01:45;;;;;;;10.40;9.60;;;21.30;64.90;;;;;;5054501;28;20662;-87
2023/06/25 02:04:11;;;;;;;10.35;9.50;;;21.30;64.70;;;;;;5054299;28;20184;-88
2023/06/25 02:06:37;;;;;;;10.52;9.82;;;21.20;65.10;;;;;;5027170;28;20221;-89
2023/06/25 02:09:02;;;;;;;10.00;9.30;;;21.20;65.20;;;;;;5012948;28;20339;-89
2023/06/25 02:11:28;;;;;;;10.00;9.20;;;21.10;65.90;;;;;;5013414;28;20403;-88
2023/06/25 02:13:54;;;;;;;9.90;9.20;;;21.10;65.80;;;;;;5011676;28;20269;-88
2023/06/25 02:16:19;;;;;;;10.25;9.45;;;21.00;65.90;;;;;;5012235;28;20535;-89
2023/06/25 02:18:46;;;;;;;10.15;9.35;;;21.00;66.00;;;;;;5013823;28;20176;-89
2023/06/25 02:21:12;;;;;;;10.45;9.70;;;21.00;65.90;;;;;;5015367;28;20193;-89
2023/06/25 02:23:37;;;;;;;10.30;9.32;;;21.00;65.90;;;;;;5015226;28;20651;-89
2023/06/25 02:26:03;;;;;;;9.73;9.13;;;21.00;65.70;;;;;;5015743;28;20233;-88
2023/06/25 02:28:28;;;;;;;9.63;9.02;;;20.90;66.40;;;;;;5016112;28;20224;-89
2023/06/25 02:30:54;;;;;;;10.15;9.38;;;20.90;66.10;;;;;;5015583;28;20213;-87
2023/06/25 02:33:20;;;;;;;10.00;9.30;;;20.90;66.10;;;;;;5016333;28;20598;-89
2023/06/25 02:35:45;;;;;;;10.50;9.70;;;20.80;66.50;;;;;;5016372;28;20209;-86
2023/06/25 02:38:11;;;;;;;10.32;9.48;;;20.80;66.60;;;;;;5024851;28;20239;-88
2023/06/25 02:40:37;;;;;;;9.75;9.05;;;20.80;66.50;;;;;;5035915;28;20754;-89
2023/06/25 02:43:02;;;;;;;9.82;8.95;;;20.90;66.30;;;;;;5018883;28;20213;-89
2023/06/25 02:45:28;;;;;;;10.35;9.65;;;20.90;66.30;;;;;;5015850;28;20313;-90
2023/06/25 02:47:53;;;;;;;10.82;10.02;;;20.80;66.70;;;;;;5050645;28;20199;-88
2023/06/25 02:50:19;;;;;;;9.75;9.00;;;20.70;67.10;;;;;;5034909;28;20243;-90
2023/06/25 02:52:44;;;;;;;10.02;9.02;;;20.70;67.40;;;;;;5034688;28;20180;-88
2023/06/25 02:55:10;;;;;;;10.10;9.40;;;20.60;67.40;;;;;;5021502;28;20201;-90
2023/06/25 02:57:36;;;;;;;10.25;9.52;;;20.70;67.30;;;;;;5015412;28;20174;-90
2023/06/25 03:00:04;;;;;;;9.43;8.68;;;20.70;67.20;;;;;;5015564;28;20315;-89
2023/06/25 03:02:30;;;;;;;10.07;9.38;;;20.70;67.00;;;;;;5014091;28;20192;-88
2023/06/25 03:04:56;;;;;;;10.50;9.63;;;20.70;66.70;;;;;;5013994;28;20224;-89
2023/06/25 03:07:21;;;;;;;10.07;9.27;;;20.80;66.10;;;;;;5015433;28;20279;-90
2023/06/25 03:09:47;;;;;;;10.65;9.85;;;20.80;66.00;;;;;;5017914;28;20704;-91
2023/06/25 03:12:13;;;;;;;9.77;9.07;;;20.60;66.50;;;;;;5019859;28;20181;-89
2023/06/25 03:14:40;;;;;;;9.70;8.95;;;20.40;67.30;;;;;;5031161;28;20189;-88
2023/06/25 03:17:05;;;;;;;9.60;8.80;;;20.20;68.20;;;;;;5037281;28;20233;-89
2023/06/25 03:19:31;;;;;;;9.15;8.52;;;20.30;68.00;;;;;;5036687;28;20274;-91
2023/06/25 03:21:59;;;;;;;10.07;9.20;;;20.30;67.60;;;;;;5038533;28;20199;-89
2023/06/25 03:24:24;;;;;;;10.20;9.40;;;20.50;67.00;;;;;;5037321;28;20238;-89
2023/06/25 03:26:50;;;;;;;9.65;8.95;;;20.40;66.70;;;;;;5038218;28;20208;-90
2023/06/25 03:29:16;;;;;;;9.82;9.07;;;20.40;66.90;;;;;;5038193;28;20712;-89
2023/06/25 03:31:41;;;;;;;10.23;9.43;;;20.40;66.70;;;;;;5037398;28;20550;-89
2023/06/25 03:34:07;;;;;;;10.15;9.45;;;20.30;67.40;;;;;;5037225;28;20173;-88
2023/06/25 03:36:33;;;;;;;9.77;9.02;;;20.20;68.00;;;;;;5036335;28;20234;-90
2023/06/25 03:38:58;;;;;;;10.57;9.60;;;20.10;68.20;;;;;;5037544;28;20181;-89
2023/06/25 03:41:25;;;;;;;9.48;8.68;;;20.20;67.90;;;;;;5034909;28;20220;-89
2023/06/25 03:43:51;;;;;;;9.13;8.52;;;20.20;67.90;;;;;;5031843;28;20242;-89
2023/06/25 03:46:17;;;;;;;10.10;9.35;;;20.20;67.50;;;;;;5054693;28;20250;-88
2023/06/25 03:48:43;;;;;;;9.65;8.85;;;20.00;68.10;;;;;;5057202;28;20751;-88
2023/06/25 03:51:09;;;;;;;9.50;8.75;;;20.10;68.40;;;;;;5056727;28;20186;-89
2023/06/25 03:53:35;;;;;;;9.65;8.85;;;20.10;68.70;;;;;;5055864;28;20667;-88
2023/06/25 03:56:00;;;;;;;9.40;8.80;;;20.00;68.50;;;;;;5056453;28;20210;-89
2023/06/25 03:58:26;;;;;;;9.25;8.65;;;20.10;68.20;;;;;;5055884;28;20187;-89
2023/06/25 04:00:52;;;;;;;9.73;8.80;;;20.00;68.30;;;;;;5040273;28;20181;-89
2023/06/25 04:03:17;;;;;;;9.00;8.35;;;20.00;68.60;;;;;;5034735;28;20182;-88
2023/06/25 04:05:45;;;;;;;9.60;8.85;;;20.10;68.60;;;;;;5034907;28;20195;-89
2023/06/25 04:08:11;;;;;;;8.88;8.27;;;20.00;68.40;;;;;;5026665;28;20234;-90
2023/06/25 04:10:38;;;;;;;9.25;8.65;;;20.00;68.20;;;;;;5014199;28;20222;-89
2023/06/25 04:13:04;;;;;;;9.32;8.57;;;20.00;68.80;;;;;;5015181;28;20676;-88
2023/06/25 04:15:29;;;;;;;9.00;8.38;;;20.00;68.40;;;;;;5021669;28;20203;-89
2023/06/25 04:17:55;;;;;;;9.52;8.88;;;19.90;68.60;;;;;;5020747;28;20187;-88
2023/06/25 04:20:23;;;;;;;9.50;8.60;;;19.90;69.00;;;;;;5019644;28;20247;-86
2023/06/25 04:22:48;;;;;;;9.35;8.65;;;19.90;69.00;;;;;;5017851;28;20490;-90
2023/06/25 04:25:14;;;;;;;9.07;8.27;;;19.80;69.50;;;;;;5017247;28;20624;-89
2023/06/25 04:27:39;;;;;;;9.60;8.82;;;19.80;69.70;;;;;;5017323;28;20246;-88
2023/06/25 04:30:06;;;;;;;9.35;8.45;;;19.80;69.30;;;;;;5017339;28;20218;-88
2023/06/25 04:32:32;;;;;;;9.07;8.48;;;19.90;69.40;;;;;;5016751;28;20258;-88
2023/06/25 04:34:58;;;;;;;9.68;8.88;;;20.00;68.90;;;;;;5016202;28;20231;-89
2023/06/25 04:37:24;;;;;;;9.30;8.65;;;20.00;68.30;;;;;;5016819;28;20199;-89
2023/06/25 04:39:50;;;;;;;9.30;8.63;;;19.90;69.20;;;;;;5046759;28;20197;-89
2023/06/25 04:42:15;;;;;;;10.57;9.75;;;19.70;70.60;;;;;;5038838;28;20189;-86
2023/06/25 04:44:41;;;;;;;10.38;9.57;;;19.60;71.50;;;;;;5036845;28;20256;-88
2023/06/25 04:47:06;;;;;;;9.00;8.35;;;19.60;71.40;;;;;;5036026;28;20768;-90
2023/06/25 04:49:32;;;;;;;9.68;8.88;;;19.60;70.70;;;;;;5031593;28;20240;-88
2023/06/25 04:51:57;;;;;;;9.18;8.45;;;19.70;70.20;;;;;;5016738;28;20190;-86
2023/06/25 04:54:23;;;;;;;9.00;8.35;;;19.80;69.00;;;;;;5016838;28;20712;-87
2023/06/25 04:56:49;;;;;;;8.68;8.15;;;19.90;67.80;;;;;;5015746;28;20238;-88
2023/06/25 04:59:14;;;;;;;8.85;8.18;;;20.00;69.20;;;;;;5014856;28;20178;-89
2023/06/25 05:01:40;;;;;;;9.35;8.65;;;19.90;70.00;;;;;;5014828;28;20673;-89
2023/06/25 05:04:05;;;;;;;9.25;8.65;;;19.90;70.10;;;;;;5013929;28;20209;-89
2023/06/25 05:06:31;;;;;;;9.90;9.20;;;20.00;69.80;;;;;;5015697;28;20203;-88
2023/06/25 05:08:57;;;;;;;9.80;9.10;;;20.00;68.60;;;;;;5013377;28;20287;-89
2023/06/25 05:11:22;;;;;;;8.88;8.18;;;20.00;69.40;;;;;;5016017;28;20182;-88
2023/06/25 05:13:48;;;;;;;9.60;8.82;;;19.80;68.40;;;;;;5018015;28;20213;-89
2023/06/25 05:16:14;;;;;;;9.20;8.48;;;19.90;69.20;;;;;;5017145;28;20671;-90
2023/06/25 05:18:41;;;;;;;9.43;8.73;;;20.00;68.30;;;;;;5017487;28;20267;-88
2023/06/25 05:21:07;;;;;;;8.52;7.93;;;20.00;68.30;;;;;;5026895;28;20189;-90
2023/06/25 05:23:57;;;;;;;9.65;8.77;;;20.20;66.60;;;;;;5037561;28;20185;-90
2023/06/25 05:26:23;;;;;;;9.43;8.63;;;20.20;66.00;;;;;;5049410;28;20186;-90
2023/06/25 05:28:48;;;;;;;8.90;8.32;;;20.30;66.00;;;;;;5050801;28;20232;-90
2023/06/25 05:31:14;;;;;;;8.48;7.90;;;20.40;65.90;;;;;;5040321;28;20189;-88
2023/06/25 05:33:40;;;;;;;9.18;8.57;;;20.50;65.30;;;;;;5032009;28;20175;-89
2023/06/25 05:36:05;;;;;;;9.30;8.48;;;20.60;64.80;;;;;;5042510;28;20205;-89
2023/06/25 05:38:31;;;;;;;8.85;8.25;;;20.70;64.20;;;;;;5050685;28;20190;-90
2023/06/25 05:40:56;;;;;;;8.70;7.90;;;20.80;63.80;;;;;;5058362;28;20177;-88
2023/06/25 05:43:22;;;;;;;9.15;8.38;;;20.80;63.50;;;;;;5038648;28;20192;-88
2023/06/25 05:45:48;;;;;;;8.82;8.13;;;20.80;63.50;;;;;;5037423;28;20626;-89
2023/06/25 05:48:13;;;;;;;9.10;8.20;;;20.80;62.40;;;;;;5029317;28;20198;-90
2023/06/25 05:50:39;;;;;;;9.48;8.77;;;20.80;62.90;;;;;;5030599;28;20209;-89
2023/06/25 05:53:05;;;;;;;9.13;8.25;;;20.90;62.20;;;;;;5028016;28;20171;-90
2023/06/25 05:55:30;;;;;;;9.10;8.40;;;21.00;61.30;;;;;;5035424;28;20739;-90
2023/06/25 05:57:56;;;;;;;9.27;8.68;;;21.10;60.90;;;;;;5034536;28;20202;-89
2023/06/25 06:00:23;;;;;;;9.20;8.25;;;21.10;60.00;;;;;;5036710;28;20237;-89
2023/06/25 06:02:49;;;;;;;9.23;8.63;;;21.10;60.30;;;;;;5036885;28;20209;-87
2023/06/25 06:05:14;;;;;;;8.98;8.38;;;21.20;60.10;;;;;;5031574;28;20187;-87
2023/06/25 06:07:40;;;;;;;9.07;8.48;;;21.30;60.30;;;;;;5024595;28;20185;-87
2023/06/25 06:10:06;;;;;;;8.90;8.30;;;21.30;59.60;;;;;;5034664;28;20242;-87
2023/06/25 06:12:32;;;;;;;9.48;8.77;;;21.40;59.90;;;;;;5036815;28;20563;-87
2023/06/25 06:14:57;;;;;;;9.00;8.30;;;21.50;59.80;;;;;;5036988;28;20192;-87
2023/06/25 06:17:23;;;;;;;8.77;8.07;;;21.50;59.00;;;;;;5037039;28;20214;-87
2023/06/25 06:19:49;;;;;;;9.73;8.82;;;21.50;59.10;;;;;;5035011;28;20194;-86
2023/06/25 06:22:16;;;;;;;9.02;8.43;;;21.60;59.70;;;;;;5057637;28;20185;-88
2023/06/25 06:24:42;;;;;;;9.68;8.93;;;21.70;59.50;;;;;;5028934;28;20198;-87
2023/06/25 06:27:08;;;;;;;9.82;9.13;;;21.90;59.20;;;;;;5017883;28;20205;-88
2023/06/25 06:29:34;;;;;;;9.80;9.20;;;22.10;58.10;;;;;;5017853;28;20272;-86
2023/06/25 06:31:59;;;;;;;10.57;9.70;;;22.10;58.20;;;;;;5036734;28;20217;-86
2023/06/25 06:34:25;;;;;;;9.63;8.93;;;22.20;57.90;;;;;;5021341;28;20185;-90
2023/06/25 06:36:51;;;;;;;9.73;9.13;;;22.20;56.50;;;;;;5018308;28;20196;-86
2023/06/25 06:39:17;;;;;;;10.05;9.25;;;22.30;56.90;;;;;;5029615;28;20259;-86
2023/06/25 06:41:43;;;;;;;9.15;8.55;;;22.40;55.90;;;;;;5024037;28;20188;-87
2023/06/25 06:44:15;;;;;;;9.40;8.63;;;22.40;56.90;;;;;;5044835;28;20185;-88
2023/06/25 06:46:41;;;;;;;9.75;8.95;;;22.50;57.00;;;;;;5031257;28;20771;-87
2023/06/25 06:49:07;;;;;;;9.70;9.00;;;22.60;55.90;;;;;;5027998;28;20217;-88
2023/06/25 06:51:33;;;;;;;9.75;9.00;;;22.70;56.10;;;;;;5029479;28;20206;-87
2023/06/25 06:53:58;;;;;;;10.00;9.13;;;22.80;55.50;;;;;;5022837;28;20177;-89
2023/06/25 06:56:24;;;;;;;9.98;9.20;;;22.90;55.10;;;;;;5036460;28;20232;-87
2023/06/25 06:58:50;;;;;;;9.40;8.80;;;22.90;55.80;;;;;;5036334;28;20840;-87
2023/06/25 07:01:15;;;;;;;9.45;8.75;;;23.00;55.30;;;;;;5032114;28;20540;-87
2023/06/25 07:03:41;;;;;;;10.10;9.48;;;23.00;54.60;;;;;;5038609;28;20189;-87
2023/06/25 07:06:06;;;;;;;9.50;8.80;;;23.10;55.00;;;;;;5035409;28;20227;-88
2023/06/25 07:08:32;;;;;;;9.15;8.55;;;23.20;55.80;;;;;;5034402;28;20227;-89
2023/06/25 07:10:58;;;;;;;9.77;8.98;;;23.40;54.90;;;;;;5032322;28;20181;-87
2023/06/25 07:13:23;;;;;;;9.18;8.57;;;23.30;55.00;;;;;;5031342;28;20200;-87
2023/06/25 07:15:49;;;;;;;9.75;9.07;;;23.50;53.70;;;;;;5033761;28;20283;-88
2023/06/25 07:18:15;;;;;;;9.43;8.63;;;23.70;51.90;;;;;;5034965;28;20193;-89
2023/06/25 07:20:40;;;;;;;9.77;9.07;;;23.80;51.70;;;;;;5034631;28;20189;-86
2023/06/25 07:23:06;;;;;;;9.85;9.25;;;24.00;51.40;;;;;;5032477;28;21787;-88
2023/06/25 07:25:32;;;;;;;11.95;10.93;;;24.30;50.40;;;;;;5035313;28;20197;-87
2023/06/25 07:27:57;;;;;;;11.90;11.10;;;24.40;50.40;;;;;;5037330;28;20193;-88
2023/06/25 07:30:23;;;;;;;11.25;10.45;;;24.40;48.90;;;;;;5036016;28;20212;-88
2023/06/25 07:32:48;;;;;;;11.02;10.30;;;24.20;49.60;;;;;;5033253;28;20654;-86
2023/06/25 07:35:14;;;;;;;10.80;10.10;;;24.40;50.10;;;;;;5034656;28;20271;-85
2023/06/25 07:37:40;;;;;;;11.15;10.45;;;24.40;50.70;;;;;;5034412;28;20196;-87
2023/06/25 07:40:06;;;;;;;11.40;10.38;;;24.50;49.80;;;;;;5030103;28;20177;-87
2023/06/25 07:42:32;;;;;;;12.00;11.30;;;24.70;50.20;;;;;;5032580;28;20192;-87
2023/06/25 07:44:58;;;;;;;11.52;10.82;;;24.70;49.20;;;;;;5041508;28;20189;-85
2023/06/25 07:47:25;;;;;;;11.15;10.25;;;24.70;49.40;;;;;;5036549;28;20208;-88
2023/06/25 07:49:51;;;;;;;11.00;10.30;;;24.70;50.20;;;;;;5033246;28;20209;-88
2023/06/25 07:52:17;;;;;;;11.23;10.52;;;24.70;50.50;;;;;;5032279;28;20629;-87
2023/06/25 07:54:43;;;;;;;10.65;9.90;;;24.80;49.80;;;;;;5033816;28;20189;-88
2023/06/25 07:57:09;;;;;;;11.30;10.45;;;24.90;50.10;;;;;;5035335;28;20193;-88
2023/06/25 07:59:34;;;;;;;14.30;13.40;;;25.00;48.10;;;;;;5031155;28;20377;-86
2023/06/25 08:02:00;;;;;;;13.80;13.10;;;25.40;44.90;;;;;;5034274;28;20659;-86
2023/06/25 08:04:26;;;;;;;14.63;13.82;;;25.40;45.50;;;;;;5030529;28;20263;-86
2023/06/25 08:06:51;;;;;;;14.77;13.77;;;25.70;45.20;;;;;;5032144;28;20205;-85
2023/06/25 08:09:17;;;;;;;14.65;13.63;;;25.80;45.80;;;;;;5030255;28;20225;-85
2023/06/25 08:11:42;;;;;;;15.27;14.10;;;25.80;46.00;;;;;;5028848;28;20192;-87
2023/06/25 08:14:08;;;;;;;15.35;14.52;;;26.00;47.00;;;;;;5030850;28;20306;-86
2023/06/25 08:16:34;;;;;;;15.52;14.57;;;26.10;44.90;;;;;;5033233;28;20196;-87
2023/06/25 08:19:00;;;;;;;16.08;15.25;;;26.20;44.50;;;;;;5030828;28;20189;-87
2023/06/25 08:21:26;;;;;;;15.88;15.07;;;26.30;44.50;;;;;;5029678;28;20656;-87
2023/06/25 08:23:52;;;;;;;15.80;15.00;;;26.40;44.70;;;;;;5033556;28;20229;-88
2023/06/25 08:26:18;;;;;;;15.48;14.55;;;26.50;44.20;;;;;;5028368;28;20231;-86
2023/06/25 08:28:45;;;;;;;14.30;13.43;;;26.60;43.10;;;;;;5028194;28;20282;-89
2023/06/25 08:31:10;;;;;;;14.75;14.05;;;26.60;40.40;;;;;;5028670;28;20184;-90
2023/06/25 08:33:38;;;;;;;15.48;14.68;;;26.60;41.30;;;;;;5032775;28;20223;-88
2023/06/25 08:36:04;;;;;;;15.13;14.32;;;26.70;40.70;;;;;;5027779;28;20205;-86
2023/06/25 08:38:31;;;;;;;14.70;13.93;;;26.80;40.20;;;;;;5031973;28;20629;-88
2023/06/25 08:40:59;;;;;;;14.88;14.13;;;26.80;40.30;;;;;;5031687;28;20746;-87
2023/06/25 08:43:24;;;;;;;16.27;15.48;;;26.90;40.80;;;;;;5029966;28;20189;-86
2023/06/25 08:45:50;;;;;;;17.00;16.20;;;27.10;41.50;;;;;;5030611;28;20212;-86
2023/06/25 08:48:17;;;;;;;18.33;17.42;;;27.40;37.70;;;;;;5030553;28;20189;-88
2023/06/25 08:50:49;;;;;;;17.45;16.65;;;27.60;35.50;;;;;;5023647;28;20223;-88
2023/06/25 08:53:15;;;;;;;17.67;16.77;;;27.90;34.30;;;;;;5023797;28;20169;-87
2023/06/25 08:55:43;;;;;;;17.50;16.67;;;28.10;33.80;;;;;;5024601;28;20211;-88
2023/06/25 08:58:08;;;;;;;18.65;17.75;;;28.20;34.50;;;;;;5024899;28;20208;-88
2023/06/25 09:00:34;;;;;;;19.08;18.20;;;28.20;34.70;;;;;;5023941;28;20967;-87
2023/06/25 09:03:00;;;;;;;19.27;18.20;;;28.20;35.30;;;;;;5026247;28;20192;-87
2023/06/25 09:05:27;;;;;;;17.65;16.65;;;28.60;33.50;;;;;;5026236;28;20231;-86
2023/06/25 09:07:53;;;;;;;17.13;16.30;;;28.70;32.00;;;;;;5026793;28;20992;-87
2023/06/25 09:10:20;;;;;;;18.05;16.85;;;28.70;31.70;;;;;;5028433;28;20213;-87
2023/06/25 09:12:50;;;;;;;18.67;17.77;;;28.70;31.20;;;;;;5025229;28;20593;-88
2023/06/25 09:15:23;;;;;;;20.65;19.65;;;28.90;29.90;;;;;;5024386;28;20188;-87
2023/06/25 09:17:54;;;;;;;22.23;21.02;;;29.10;29.90;;;;;;5022149;28;20412;-88
2023/06/25 09:20:21;;;;;;;23.27;22.08;;;29.20;30.00;;;;;;5028811;28;20287;-87
2023/06/25 09:22:53;;;;;;;24.77;23.67;;;29.40;30.10;;;;;;5024123;28;20488;-88
2023/06/25 09:25:28;;;;;;;22.55;21.45;;;29.50;28.90;;;;;;5024535;28;20235;-87
2023/06/25 09:27:54;;;;;;;23.85;22.85;;;29.60;29.00;;;;;;5028731;28;20180;-87
2023/06/25 09:30:22;;;;;;;24.65;23.55;;;29.60;28.10;;;;;;5030217;28;20828;-88
2023/06/25 09:32:54;;;;;;;25.52;24.40;;;29.80;27.60;;;;;;5025218;28;20746;-88
2023/06/25 09:35:22;;;;;;;25.00;23.80;;;30.00;28.00;;;;;;5027283;28;20246;-88
2023/06/25 09:37:52;;;;;;;24.90;23.70;;;30.10;28.50;;;;;;5031926;28;20177;-88
2023/06/25 09:40:19;;;;;;;24.48;23.35;;;30.30;28.30;;;;;;5030614;28;20185;-88
2023/06/25 09:42:46;;;;;;;24.70;23.60;;;30.50;27.60;;;;;;5023903;28;20682;-87
2023/06/25 09:45:16;;;;;;;23.83;22.77;;;30.40;27.60;;;;;;5026308;28;20274;-87
2023/06/25 09:47:44;;;;;;;24.77;23.58;;;30.40;27.60;;;;;;5026826;28;20204;-87
2023/06/25 09:50:23;;;;;;;25.13;23.88;;;30.50;27.50;;;;;;5025458;28;20278;-89
2023/06/25 09:52:56;;;;;;;25.50;24.38;;;30.60;27.60;;;;;;5024648;28;20218;-90
2023/06/25 09:55:22;;;;;;;25.65;24.55;;;30.80;27.40;;;;;;5035369;28;20177;-87
2023/06/25 09:57:49;;;;;;;24.02;23.02;;;30.90;26.90;;;;;;5033399;28;20192;-87
2023/06/25 10:00:17;;;;;;;25.50;24.48;;;30.90;26.20;;;;;;5033188;28;20193;-88
2023/06/25 10:02:44;;;;;;;25.77;24.48;;;31.00;26.50;;;;;;5034597;28;20204;-86
2023/06/25 10:05:10;;;;;;;23.00;21.92;;;31.30;25.60;;;;;;5034586;28;20181;-87
2023/06/25 10:07:36;;;;;;;23.17;22.17;;;31.50;24.90;;;;;;5027803;28;20200;-88
2023/06/25 10:10:02;;;;;;;24.17;22.98;;;31.60;24.40;;;;;;5029812;28;20204;-87
2023/06/25 10:12:38;;;;;;;24.02;22.65;;;31.50;25.70;;;;;;5026427;28;20272;-90
2023/06/25 10:15:04;;;;;;;24.35;23.25;;;31.40;25.60;;;;;;5026965;28;20180;-89
2023/06/25 10:17:31;;;;;;;24.02;22.92;;;31.60;25.90;;;;;;5029259;28;20217;-86
2023/06/25 10:19:58;;;;;;;23.75;22.73;;;31.60;25.40;;;;;;5026621;28;20459;-87
2023/06/25 10:22:25;;;;;;;24.65;23.65;;;31.80;25.00;;;;;;5029391;28;20189;-88
2023/06/25 10:24:53;;;;;;;24.40;23.30;;;32.00;25.40;;;;;;5039800;28;20189;-89
2023/06/25 10:27:26;;;;;;;25.27;24.08;;;32.00;24.40;;;;;;5030613;28;20220;-86
2023/06/25 10:29:58;;;;;;;23.55;22.55;;;32.10;24.60;;;;;;5031113;28;20216;-87
2023/06/25 10:32:28;;;;;;;23.98;22.77;;;32.00;25.00;;;;;;5027017;28;20534;-87
2023/06/25 10:34:54;;;;;;;24.67;23.58;;;32.20;24.80;;;;;;5027538;28;20334;-89
2023/06/25 10:37:20;;;;;;;24.63;23.52;;;32.50;24.50;;;;;;5029874;28;20200;-88
2023/06/25 10:39:46;;;;;;;24.77;23.75;;;32.40;24.50;;;;;;5043857;28;20193;-87
2023/06/25 10:42:14;;;;;;;24.67;23.58;;;32.20;24.20;;;;;;5037976;28;20288;-88
2023/06/25 10:44:40;;;;;;;24.40;23.40;;;32.20;24.10;;;;;;5041286;28;20213;-89
2023/06/25 10:47:08;;;;;;;24.48;23.38;;;32.20;23.20;;;;;;5029421;28;20224;-88
2023/06/25 10:49:35;;;;;;;24.23;23.13;;;31.80;24.60;;;;;;5028129;28;20193;-86
2023/06/25 10:52:02;;;;;;;24.60;23.40;;;32.30;24.60;;;;;;5029014;28;20709;-87
2023/06/25 10:54:28;;;;;;;24.65;23.55;;;32.10;24.10;;;;;;5029758;28;20196;-88
2023/06/25 10:57:11;;;;;;;24.90;23.80;;;32.30;23.60;;;;;;5037218;28;20212;-87
2023/06/25 10:59:37;;;;;;;24.52;23.52;;;32.70;22.30;;;;;;5031830;28;20184;-87
2023/06/25 11:02:12;;;;;;;25.42;24.33;;;32.70;22.70;;;;;;5029542;28;20180;-88
2023/06/25 11:04:38;;;;;;;24.38;23.17;;;33.10;23.60;;;;;;5027447;28;20203;-88
2023/06/25 11:07:04;;;;;;;26.67;25.55;;;33.30;23.50;;;;;;5035434;28;20216;-87
2023/06/25 11:09:29;;;;;;;28.52;27.23;;;33.40;22.70;;;;;;5034567;28;20236;-88
2023/06/25 11:11:55;;;;;;;28.92;27.67;;;33.30;23.30;;;;;;5030335;28;20217;-88
2023/06/25 11:14:21;;;;;;;30.80;29.58;;;33.60;23.00;;;;;;5035198;28;20180;-88
2023/06/25 11:16:47;;;;;;;29.85;28.63;;;34.00;21.60;;;;;;5036628;28;20205;-88
2023/06/25 11:19:12;;;;;;;30.70;29.40;;;33.80;22.20;;;;;;5031525;28;20200;-87
2023/06/25 11:21:38;;;;;;;30.58;29.33;;;33.70;22.60;;;;;;5030697;28;20201;-88
2023/06/25 11:24:08;;;;;;;31.13;29.83;;;33.80;22.10;;;;;;5034908;28;20561;-87
2023/06/25 11:26:44;;;;;;;31.27;29.90;;;34.00;22.10;;;;;;5032717;28;20212;-87
2023/06/25 11:29:10;;;;;;;30.80;29.50;;;34.30;22.30;;;;;;5031718;28;20196;-89
2023/06/25 11:31:44;;;;;;;30.23;28.92;;;34.60;22.10;;;;;;5029391;28;20180;-88
2023/06/25 11:34:19;;;;;;;30.38;29.02;;;34.30;21.70;;;;;;5032385;28;20188;-88
2023/06/25 11:36:45;;;;;;;30.75;29.38;;;34.30;21.00;;;;;;5036699;28;20257;-88
2023/06/25 11:39:11;;;;;;;30.33;29.08;;;34.60;20.40;;;;;;5037388;28;20217;-89
2023/06/25 11:41:36;;;;;;;30.65;29.30;;;34.70;21.20;;;;;;5029865;28;20220;-87
2023/06/25 11:44:02;;;;;;;30.92;29.63;;;34.90;21.50;;;;;;5030957;28;20177;-89
2023/06/25 11:46:28;;;;;;;30.75;29.45;;;34.80;21.90;;;;;;5049115;28;20548;-91
2023/06/25 11:48:53;;;;;;;29.67;28.27;;;35.00;21.80;;;;;;5050969;28;20228;-89
2023/06/25 11:51:19;;;;;;;30.65;29.35;;;34.80;21.20;;;;;;5042947;28;20224;-88
2023/06/25 11:53:45;;;;;;;31.15;29.75;;;34.40;22.20;;;;;;5038094;28;20197;-89
2023/06/25 11:56:10;;;;;;;30.77;29.27;;;35.00;21.70;;;;;;5035859;28;20534;-87
2023/06/25 11:58:36;;;;;;;30.20;28.85;;;35.20;20.90;;;;;;5032716;28;20659;-88
2023/06/25 12:01:02;;;;;;;31.13;29.83;;;35.40;20.80;;;;;;5029656;28;20192;-87
2023/06/25 12:03:29;;;;;;;30.45;29.00;;;35.30;20.70;;;;;;5031570;28;20272;-88
2023/06/25 12:05:55;;;;;;;30.40;29.13;;;35.20;20.30;;;;;;5031619;28;20235;-88
2023/06/25 12:08:20;;;;;;;31.77;30.40;;;35.20;20.00;;;;;;5029789;28;20216;-88
2023/06/25 12:10:46;;;;;;;30.75;29.45;;;35.40;20.10;;;;;;5033468;28;20637;-88
2023/06/25 12:13:12;;;;;;;30.33;29.00;;;35.50;20.10;;;;;;5029549;28;20184;-88
2023/06/25 12:15:37;;;;;;;30.77;29.35;;;35.80;19.60;;;;;;5030429;28;20208;-86
2023/06/25 12:18:03;;;;;;;32.95;31.55;;;35.90;20.10;;;;;;5032865;28;20192;-86
2023/06/25 12:20:28;;;;;;;33.83;32.22;;;35.90;19.30;;;;;;5034382;28;20187;-88
2023/06/25 12:22:54;;;;;;;31.25;29.85;;;35.60;19.70;;;;;;5028174;28;20690;-87
2023/06/25 12:25:20;;;;;;;32.30;30.90;;;35.60;19.70;;;;;;5035048;28;20181;-89
2023/06/25 12:27:45;;;;;;;31.83;30.45;;;35.90;19.90;;;;;;5038979;28;20177;-87
2023/06/25 12:30:13;;;;;;;30.58;29.20;;;35.80;20.00;;;;;;5031890;28;20223;-87
2023/06/25 12:32:39;;;;;;;31.20;29.83;;;35.80;20.40;;;;;;5030298;28;20264;-89
2023/06/25 12:35:05;;;;;;;33.92;32.33;;;35.90;19.70;;;;;;5034962;28;20197;-88